Balmville, New York
Current Conditions -  °F | °C
As of 6:45 AM on Monday 20 Oct 2014 (Local Time) from KSWF Reporting Station
Broken Clouds Broken Clouds  
Wind Chill: 29°   Ceiling: 12000
Heat Index: 36°   Visibility: 10mi
Dew Point: 30°   Wind: 9mph
Humidity: 81%   Direction: 250°WSW
Pressure: 30.07"   Gusts: NA
Location:  41.5391°N, 74.0491°W
Report Text: KSWF 201045Z 25008KT 10SM BKN120 02/M01 A3007
Loading
Personal Weather Stations






























Interactive Weather Map
Tropical Storm Tracking
New forecast layout! Learn more

10-Day Weather Forecast

Advertisements
Track Severe Weather on mobile